sensor_id;sensor_type;location;lat;lon;timestamp;pressure;altitude;pressure_sealevel;temperature;humidity
41898;BME280;27576;53.366;-1.498;2023-06-26T00:01:29;99985.31;;;17.09;81.10
41898;BME280;27576;53.366;-1.498;2023-06-26T00:03:56;99961.13;;;16.98;81.13
41898;BME280;27576;53.366;-1.498;2023-06-26T00:06:21;99953.59;;;16.81;82.20
41898;BME280;27576;53.366;-1.498;2023-06-26T00:08:50;99977.84;;;16.91;82.34
41898;BME280;27576;53.366;-1.498;2023-06-26T00:11:15;99990.00;;;16.93;82.63
41898;BME280;27576;53.366;-1.498;2023-06-26T00:13:40;99991.78;;;16.91;82.46
41898;BME280;27576;53.366;-1.498;2023-06-26T00:16:07;99990.03;;;16.92;83.21
41898;BME280;27576;53.366;-1.498;2023-06-26T00:18:32;99994.38;;;16.95;82.65
41898;BME280;27576;53.366;-1.498;2023-06-26T00:20:57;99953.00;;;16.65;82.84
41898;BME280;27576;53.366;-1.498;2023-06-26T00:23:23;99991.09;;;16.83;82.41
41898;BME280;27576;53.366;-1.498;2023-06-26T00:25:48;99992.84;;;16.83;82.18
41898;BME280;27576;53.366;-1.498;2023-06-26T00:28:13;100000.06;;;16.68;82.70
41898;BME280;27576;53.366;-1.498;2023-06-26T00:30:40;100002.72;;;16.67;83.00
41898;BME280;27576;53.366;-1.498;2023-06-26T00:33:05;100009.69;;;16.66;83.15
41898;BME280;27576;53.366;-1.498;2023-06-26T00:35:31;100012.31;;;16.66;82.70
41898;BME280;27576;53.366;-1.498;2023-06-26T00:37:56;99991.66;;;16.50;82.80
41898;BME280;27576;53.366;-1.498;2023-06-26T00:40:22;100003.84;;;16.52;82.87
41898;BME280;27576;53.366;-1.498;2023-06-26T00:42:47;100028.06;;;16.63;83.19
41898;BME280;27576;53.366;-1.498;2023-06-26T00:45:12;100001.31;;;16.46;83.26
41898;BME280;27576;53.366;-1.498;2023-06-26T00:47:38;100024.72;;;16.55;83.91
41898;BME280;27576;53.366;-1.498;2023-06-26T00:50:04;100020.53;;;16.45;83.97
41898;BME280;27576;53.366;-1.498;2023-06-26T00:52:30;100021.25;;;16.53;84.68
41898;BME280;27576;53.366;-1.498;2023-06-26T00:54:56;100004.88;;;16.42;84.41
41898;BME280;27576;53.366;-1.498;2023-06-26T00:57:22;100004.13;;;16.37;84.18
41898;BME280;27576;53.366;-1.498;2023-06-26T00:59:48;100033.66;;;16.43;84.73
41898;BME280;27576;53.366;-1.498;2023-06-26T01:02:14;100022.47;;;16.35;84.23
41898;BME280;27576;53.366;-1.498;2023-06-26T01:04:42;100030.31;;;16.34;84.77
41898;BME280;27576;53.366;-1.498;2023-06-26T01:07:13;100012.22;;;16.22;84.62
41898;BME280;27576;53.366;-1.498;2023-06-26T01:09:40;100033.00;;;16.29;85.09
41898;BME280;27576;53.366;-1.498;2023-06-26T01:12:06;100033.03;;;16.26;84.82
41898;BME280;27576;53.366;-1.498;2023-06-26T01:14:31;100002.84;;;16.07;84.92
41898;BME280;27576;53.366;-1.498;2023-06-26T01:16:59;100028.78;;;16.20;85.16
41898;BME280;27576;53.366;-1.498;2023-06-26T01:19:28;100028.94;;;16.11;84.82
41898;BME280;27576;53.366;-1.498;2023-06-26T01:22:25;100028.13;;;16.06;86.75
41898;BME280;27576;53.366;-1.498;2023-06-26T01:25:12;100040.16;;;16.19;86.02
41898;BME280;27576;53.366;-1.498;2023-06-26T01:27:44;100042.81;;;16.16;85.13
41898;BME280;27576;53.366;-1.498;2023-06-26T01:30:11;100015.22;;;15.97;85.18
41898;BME280;27576;53.366;-1.498;2023-06-26T01:32:37;100046.41;;;16.09;85.26
41898;BME280;27576;53.366;-1.498;2023-06-26T01:35:06;100030.78;;;16.03;85.53
41898;BME280;27576;53.366;-1.498;2023-06-26T01:37:32;100029.97;;;16.01;85.65
41898;BME280;27576;53.366;-1.498;2023-06-26T01:39:57;100047.41;;;16.01;85.52
41898;BME280;27576;53.366;-1.498;2023-06-26T01:42:23;100059.56;;;16.02;86.33
41898;BME280;27576;53.366;-1.498;2023-06-26T01:44:48;100046.72;;;15.88;85.99
41898;BME280;27576;53.366;-1.498;2023-06-26T01:47:16;100055.47;;;15.85;86.60
41898;BME280;27576;53.366;-1.498;2023-06-26T01:55:22;100053.03;;;15.73;87.72
41898;BME280;27576;53.366;-1.498;2023-06-26T01:57:50;100052.97;;;15.78;87.85
41898;BME280;27576;53.366;-1.498;2023-06-26T02:00:19;100027.91;;;15.60;88.13
41898;BME280;27576;53.366;-1.498;2023-06-26T02:02:46;100053.03;;;15.73;87.97
41898;BME280;27576;53.366;-1.498;2023-06-26T02:05:12;100055.56;;;15.78;88.45
41898;BME280;27576;53.366;-1.498;2023-06-26T02:07:37;100061.69;;;15.77;88.08
41898;BME280;27576;53.366;-1.498;2023-06-26T02:10:03;100029.72;;;15.56;88.52
41898;BME280;27576;53.366;-1.498;2023-06-26T02:12:29;100029.81;;;15.50;88.24
41898;BME280;27576;53.366;-1.498;2023-06-26T02:14:54;100021.22;;;15.42;89.09
41898;BME280;27576;53.366;-1.498;2023-06-26T02:17:19;100037.66;;;15.49;88.72
41898;BME280;27576;53.366;-1.498;2023-06-26T02:19:45;100035.09;;;15.44;88.88
41898;BME280;27576;53.366;-1.498;2023-06-26T02:22:13;100036.00;;;15.41;89.23
41898;BME280;27576;53.366;-1.498;2023-06-26T02:24:40;100023.06;;;15.32;89.58
41898;BME280;27576;53.366;-1.498;2023-06-26T02:27:06;100073.25;;;15.56;88.91
41898;BME280;27576;53.366;-1.498;2023-06-26T02:29:31;100071.56;;;15.53;89.31
41898;BME280;27576;53.366;-1.498;2023-06-26T02:31:56;100064.56;;;15.52;89.05
41898;BME280;27576;53.366;-1.498;2023-06-26T02:34:22;100065.56;;;15.45;89.34
41898;BME280;27576;53.366;-1.498;2023-06-26T02:36:47;100062.13;;;15.40;89.50
41898;BME280;27576;53.366;-1.498;2023-06-26T02:39:12;100068.22;;;15.42;89.59
41898;BME280;27576;53.366;-1.498;2023-06-26T02:41:39;100073.34;;;15.50;90.73
41898;BME280;27576;53.366;-1.498;2023-06-26T02:44:04;100042.25;;;15.30;90.36
41898;BME280;27576;53.366;-1.498;2023-06-26T02:46:30;100069.88;;;15.49;89.96
41898;BME280;27576;53.366;-1.498;2023-06-26T02:48:55;100068.94;;;15.53;90.62
41898;BME280;27576;53.366;-1.498;2023-06-26T02:51:21;100053.34;;;15.49;90.21
41898;BME280;27576;53.366;-1.498;2023-06-26T02:53:46;100057.72;;;15.45;89.69
41898;BME280;27576;53.366;-1.498;2023-06-26T02:56:12;100053.41;;;15.42;90.04
41898;BME280;27576;53.366;-1.498;2023-06-26T02:58:37;100057.75;;;15.42;89.85
41898;BME280;27576;53.366;-1.498;2023-06-26T03:01:03;100059.50;;;15.40;90.20
41898;BME280;27576;53.366;-1.498;2023-06-26T03:03:28;100069.94;;;15.40;89.93
41898;BME280;27576;53.366;-1.498;2023-06-26T03:05:53;100047.53;;;15.23;89.96
41898;BME280;27576;53.366;-1.498;2023-06-26T03:08:19;100037.19;;;15.17;90.39
41898;BME280;27576;53.366;-1.498;2023-06-26T03:10:44;100067.41;;;15.35;90.56
41898;BME280;27576;53.366;-1.498;2023-06-26T03:13:10;100070.00;;;15.38;90.96
41898;BME280;27576;53.366;-1.498;2023-06-26T03:15:35;100070.03;;;15.37;90.76
41898;BME280;27576;53.366;-1.498;2023-06-26T03:18:01;100049.38;;;15.15;91.27
41898;BME280;27576;53.366;-1.498;2023-06-26T03:20:26;100077.09;;;15.26;91.69
41898;BME280;27576;53.366;-1.498;2023-06-26T03:22:51;100073.69;;;15.19;92.23
41898;BME280;27576;53.366;-1.498;2023-06-26T03:25:17;100063.38;;;15.10;93.00
41898;BME280;27576;53.366;-1.498;2023-06-26T03:27:42;100072.03;;;15.12;93.23
41898;BME280;27576;53.366;-1.498;2023-06-26T03:30:08;100098.00;;;15.26;93.08
41898;BME280;27576;53.366;-1.498;2023-06-26T03:32:33;100102.31;;;15.27;93.29
41898;BME280;27576;53.366;-1.498;2023-06-26T03:35:00;100091.13;;;15.15;93.79
41898;BME280;27576;53.366;-1.498;2023-06-26T03:37:28;100066.09;;;14.99;94.10
41898;BME280;27576;53.366;-1.498;2023-06-26T03:39:53;100113.66;;;15.26;93.96
41898;BME280;27576;53.366;-1.498;2023-06-26T03:42:19;100115.41;;;15.25;93.52
41898;BME280;27576;53.366;-1.498;2023-06-26T03:44:44;100092.06;;;15.08;94.52
41898;BME280;27576;53.366;-1.498;2023-06-26T03:47:10;100111.97;;;15.21;94.42
41898;BME280;27576;53.366;-1.498;2023-06-26T03:49:35;100094.69;;;15.10;94.57
41898;BME280;27576;53.366;-1.498;2023-06-26T03:52:00;100120.59;;;15.27;94.85
41898;BME280;27576;53.366;-1.498;2023-06-26T03:54:26;100118.81;;;15.29;94.80
41898;BME280;27576;53.366;-1.498;2023-06-26T03:56:51;100087.75;;;15.07;94.89
41898;BME280;27576;53.366;-1.498;2023-06-26T03:59:17;100115.34;;;15.30;94.84
41898;BME280;27576;53.366;-1.498;2023-06-26T04:01:42;100055.72;;;14.91;95.24
41898;BME280;27576;53.366;-1.498;2023-06-26T04:04:08;100125.69;;;15.36;95.05
41898;BME280;27576;53.366;-1.498;2023-06-26T04:06:34;100127.47;;;15.37;94.71
41898;BME280;27576;53.366;-1.498;2023-06-26T04:08:59;100105.88;;;15.19;94.54
41898;BME280;27576;53.366;-1.498;2023-06-26T04:11:25;100125.78;;;15.30;94.91
41898;BME280;27576;53.366;-1.498;2023-06-26T04:13:50;100125.75;;;15.33;94.97
41898;BME280;27576;53.366;-1.498;2023-06-26T04:16:16;100113.66;;;15.26;95.23
41898;BME280;27576;53.366;-1.498;2023-06-26T04:18:41;100135.31;;;15.34;94.71
41898;BME280;27576;53.366;-1.498;2023-06-26T04:21:13;100139.63;;;15.38;95.30
41898;BME280;27576;53.366;-1.498;2023-06-26T04:23:39;100118.94;;;15.19;95.44
41898;BME280;27576;53.366;-1.498;2023-06-26T04:26:05;100149.22;;;15.34;95.34
41898;BME280;27576;53.366;-1.498;2023-06-26T04:28:35;100162.25;;;15.36;95.84
41898;BME280;27576;53.366;-1.498;2023-06-26T04:31:01;100145.88;;;15.20;95.19
41898;BME280;27576;53.366;-1.498;2023-06-26T04:33:28;100169.31;;;15.29;95.42
41898;BME280;27576;53.366;-1.498;2023-06-26T04:35:54;100157.19;;;15.22;95.55
41898;BME280;27576;53.366;-1.498;2023-06-26T04:38:20;100180.53;;;15.36;95.66
41898;BME280;27576;53.366;-1.498;2023-06-26T04:40:47;100189.22;;;15.36;95.06
41898;BME280;27576;53.366;-1.498;2023-06-26T04:43:12;100178.00;;;15.30;95.13
41898;BME280;27576;53.366;-1.498;2023-06-26T04:45:38;100162.38;;;15.23;94.52
41898;BME280;27576;53.366;-1.498;2023-06-26T04:48:03;100188.31;;;15.42;95.33
41898;BME280;27576;53.366;-1.498;2023-06-26T04:50:30;100190.06;;;15.41;94.46
41898;BME280;27576;53.366;-1.498;2023-06-26T04:52:56;100190.00;;;15.46;93.78
41898;BME280;27576;53.366;-1.498;2023-06-26T04:55:23;100190.84;;;15.48;94.48
41898;BME280;27576;53.366;-1.498;2023-06-26T04:57:49;100179.66;;;15.35;93.45
41898;BME280;27576;53.366;-1.498;2023-06-26T05:00:14;100209.19;;;15.45;93.81
41898;BME280;27576;53.366;-1.498;2023-06-26T05:02:40;100200.38;;;15.52;92.96
41898;BME280;27576;53.366;-1.498;2023-06-26T05:05:06;100168.31;;;15.41;92.96
41898;BME280;27576;53.366;-1.498;2023-06-26T05:07:31;100178.72;;;15.42;93.58
41898;BME280;27576;53.366;-1.498;2023-06-26T05:09:56;100202.91;;;15.60;92.72
41898;BME280;27576;53.366;-1.498;2023-06-26T05:12:22;100178.69;;;15.44;92.52
41898;BME280;27576;53.366;-1.498;2023-06-26T05:14:47;100185.63;;;15.48;92.87
41898;BME280;27576;53.366;-1.498;2023-06-26T05:17:15;100207.25;;;15.59;93.26
41898;BME280;27576;53.366;-1.498;2023-06-26T05:19:41;100205.56;;;15.55;93.47
41898;BME280;27576;53.366;-1.498;2023-06-26T05:22:07;100212.50;;;15.61;93.33
41898;BME280;27576;53.366;-1.498;2023-06-26T05:24:37;100200.31;;;15.58;93.22
41898;BME280;27576;53.366;-1.498;2023-06-26T05:27:03;100217.59;;;15.71;93.61
41898;BME280;27576;53.366;-1.498;2023-06-26T05:29:30;100214.19;;;15.66;93.15
41898;BME280;27576;53.366;-1.498;2023-06-26T05:31:56;100220.25;;;15.70;93.32
41898;BME280;27576;53.366;-1.498;2023-06-26T05:34:26;100217.69;;;15.65;93.05
41898;BME280;27576;53.366;-1.498;2023-06-26T05:36:57;100227.16;;;15.77;92.67
41898;BME280;27576;53.366;-1.498;2023-06-26T05:39:23;100201.16;;;15.65;92.69
41898;BME280;27576;53.366;-1.498;2023-06-26T05:41:50;100210.63;;;15.74;92.66
41898;BME280;27576;53.366;-1.498;2023-06-26T05:44:15;100234.03;;;15.84;92.29
41898;BME280;27576;53.366;-1.498;2023-06-26T05:46:40;100236.66;;;15.83;91.21
41898;BME280;27576;53.366;-1.498;2023-06-26T05:49:06;100238.44;;;15.81;91.89
41898;BME280;27576;53.366;-1.498;2023-06-26T05:51:31;100221.94;;;15.74;92.13
41898;BME280;27576;53.366;-1.498;2023-06-26T05:53:57;100239.22;;;15.86;91.42
41898;BME280;27576;53.366;-1.498;2023-06-26T05:56:23;100227.91;;;15.85;91.98
41898;BME280;27576;53.366;-1.498;2023-06-26T05:58:49;100242.63;;;15.94;91.48
41898;BME280;27576;53.366;-1.498;2023-06-26T06:01:15;100226.97;;;15.91;91.53
41898;BME280;27576;53.366;-1.498;2023-06-26T06:03:40;100219.13;;;15.91;90.69
41898;BME280;27576;53.366;-1.498;2023-06-26T06:06:06;100237.19;;;16.11;90.67
41898;BME280;27576;53.366;-1.498;2023-06-26T06:08:31;100238.88;;;16.15;91.21
41898;BME280;27576;53.366;-1.498;2023-06-26T06:10:59;100250.97;;;16.24;90.37
41898;BME280;27576;53.366;-1.498;2023-06-26T06:13:25;100228.44;;;16.13;90.89
41898;BME280;27576;53.366;-1.498;2023-06-26T06:15:51;100263.88;;;16.34;87.87
41898;BME280;27576;53.366;-1.498;2023-06-26T06:18:16;100243.03;;;16.31;89.39
41898;BME280;27576;53.366;-1.498;2023-06-26T06:20:41;100223.00;;;16.29;89.15
41898;BME280;27576;53.366;-1.498;2023-06-26T06:23:07;100239.28;;;16.49;88.36
41898;BME280;27576;53.366;-1.498;2023-06-26T06:25:32;100243.63;;;16.52;88.16
41898;BME280;27576;53.366;-1.498;2023-06-26T06:27:57;100263.50;;;16.63;87.74
41898;BME280;27576;53.366;-1.498;2023-06-26T06:30:23;100242.66;;;16.59;87.42
41898;BME280;27576;53.366;-1.498;2023-06-26T06:32:48;100247.66;;;16.73;86.79
41898;BME280;27576;53.366;-1.498;2023-06-26T06:35:19;100232.94;;;16.65;86.09
41898;BME280;27576;53.366;-1.498;2023-06-26T06:37:44;100249.25;;;16.86;84.88
41898;BME280;27576;53.366;-1.498;2023-06-26T06:40:10;100233.69;;;16.78;84.06
41898;BME280;27576;53.366;-1.498;2023-06-26T06:42:36;100248.25;;;16.93;84.91
41898;BME280;27576;53.366;-1.498;2023-06-26T06:45:05;100261.91;;;17.13;85.06
41898;BME280;27576;53.366;-1.498;2023-06-26T06:47:32;100263.56;;;17.19;82.85
41898;BME280;27576;53.366;-1.498;2023-06-26T06:49:57;100254.78;;;17.22;82.61
41898;BME280;27576;53.366;-1.498;2023-06-26T06:52:24;100268.41;;;17.40;82.38
41898;BME280;27576;53.366;-1.498;2023-06-26T06:54:56;100292.72;;;17.50;79.39
41898;BME280;27576;53.366;-1.498;2023-06-26T06:57:24;100281.38;;;17.48;80.36
41898;BME280;27576;53.366;-1.498;2023-06-26T06:59:50;100289.09;;;17.56;82.12
41898;BME280;27576;53.366;-1.498;2023-06-26T07:02:18;100287.44;;;17.53;79.81
41898;BME280;27576;53.366;-1.498;2023-06-26T07:04:44;100298.81;;;17.51;80.23
41898;BME280;27576;53.366;-1.498;2023-06-26T07:07:09;100264.06;;;17.41;79.89
41898;BME280;27576;53.366;-1.498;2023-06-26T07:09:36;100293.22;;;17.71;80.55
41898;BME280;27576;53.366;-1.498;2023-06-26T07:12:01;100298.41;;;17.74;78.92
41898;BME280;27576;53.366;-1.498;2023-06-26T07:14:27;100294.13;;;17.70;78.02
41898;BME280;27576;53.366;-1.498;2023-06-26T07:16:53;100274.09;;;17.64;77.33
41898;BME280;27576;53.366;-1.498;2023-06-26T07:19:18;100296.53;;;17.82;76.73
41898;BME280;27576;53.366;-1.498;2023-06-26T07:21:44;100271.47;;;17.65;76.04
41898;BME280;27576;53.366;-1.498;2023-06-26T07:24:11;100308.75;;;17.83;76.10
41898;BME280;27576;53.366;-1.498;2023-06-26T07:26:36;100314.72;;;17.91;76.19
41898;BME280;27576;53.366;-1.498;2023-06-26T07:29:02;100296.41;;;17.88;75.80
41898;BME280;27576;53.366;-1.498;2023-06-26T07:31:28;100317.00;;;18.09;75.87
41898;BME280;27576;53.366;-1.498;2023-06-26T07:33:53;100308.28;;;18.07;74.50
41898;BME280;27576;53.366;-1.498;2023-06-26T07:36:18;100318.34;;;18.29;73.33
41898;BME280;27576;53.366;-1.498;2023-06-26T07:38:44;100301.19;;;18.12;72.40
41898;BME280;27576;53.366;-1.498;2023-06-26T07:41:09;100323.44;;;18.36;73.52
41898;BME280;27576;53.366;-1.498;2023-06-26T07:43:34;100302.63;;;18.29;72.14
41898;BME280;27576;53.366;-1.498;2023-06-26T07:46:00;100313.81;;;18.37;71.26
41898;BME280;27576;53.366;-1.498;2023-06-26T07:48:25;100307.81;;;18.30;70.48
41898;BME280;27576;53.366;-1.498;2023-06-26T07:50:50;100331.22;;;18.41;70.88
41898;BME280;27576;53.366;-1.498;2023-06-26T07:53:16;100334.59;;;18.46;71.04
41898;BME280;27576;53.366;-1.498;2023-06-26T07:55:42;100347.56;;;18.55;69.97
41898;BME280;27576;53.366;-1.498;2023-06-26T07:58:07;100343.09;;;18.59;68.71
41898;BME280;27576;53.366;-1.498;2023-06-26T08:00:33;100324.91;;;18.51;69.07
41898;BME280;27576;53.366;-1.498;2023-06-26T08:02:58;100337.06;;;18.55;66.09
41898;BME280;27576;53.366;-1.498;2023-06-26T08:05:23;100321.41;;;18.49;67.70
41898;BME280;27576;53.366;-1.498;2023-06-26T08:07:49;100329.72;;;18.70;65.67
41898;BME280;27576;53.366;-1.498;2023-06-26T08:10:14;100321.69;;;18.79;65.29
41898;BME280;27576;53.366;-1.498;2023-06-26T08:12:40;100316.19;;;18.89;66.98
41898;BME280;27576;53.366;-1.498;2023-06-26T08:15:08;100319.50;;;18.98;67.00
41898;BME280;27576;53.366;-1.498;2023-06-26T08:17:34;100341.13;;;19.10;65.82
41898;BME280;27576;53.366;-1.498;2023-06-26T08:19:59;100308.00;;;19.03;65.26
41898;BME280;27576;53.366;-1.498;2023-06-26T08:22:25;100316.41;;;19.18;65.28
41898;BME280;27576;53.366;-1.498;2023-06-26T08:24:50;100329.59;;;19.16;62.38
41898;BME280;27576;53.366;-1.498;2023-06-26T08:27:15;100344.00;;;19.35;63.15
41898;BME280;27576;53.366;-1.498;2023-06-26T08:29:41;100293.47;;;19.26;64.71
41898;BME280;27576;53.366;-1.498;2023-06-26T08:32:06;100323.00;;;19.35;62.10
41898;BME280;27576;53.366;-1.498;2023-06-26T08:34:31;100310.69;;;19.37;63.99
41898;BME280;27576;53.366;-1.498;2023-06-26T08:36:57;100330.25;;;19.61;62.79
41898;BME280;27576;53.366;-1.498;2023-06-26T08:39:22;100315.91;;;19.39;60.05
41898;BME280;27576;53.366;-1.498;2023-06-26T08:41:47;100361.91;;;19.55;59.80
41898;BME280;27576;53.366;-1.498;2023-06-26T08:44:13;100354.09;;;19.54;59.31
41898;BME280;27576;53.366;-1.498;2023-06-26T08:46:38;100340.34;;;19.41;62.04
41898;BME280;27576;53.366;-1.498;2023-06-26T08:49:14;100351.53;;;19.51;62.19
41898;BME280;27576;53.366;-1.498;2023-06-26T08:51:44;100352.72;;;19.37;61.36
41898;BME280;27576;53.366;-1.498;2023-06-26T08:54:12;100360.88;;;19.27;61.87
41898;BME280;27576;53.366;-1.498;2023-06-26T08:56:42;100358.44;;;19.18;62.82
41898;BME280;27576;53.366;-1.498;2023-06-26T08:59:09;100357.50;;;19.22;63.96
41898;BME280;27576;53.366;-1.498;2023-06-26T09:01:40;100341.69;;;19.23;62.52
41898;BME280;27576;53.366;-1.498;2023-06-26T09:04:06;100343.94;;;19.38;63.84
41898;BME280;27576;53.366;-1.498;2023-06-26T09:06:32;100355.97;;;19.47;62.81
41898;BME280;27576;53.366;-1.498;2023-06-26T09:08:58;100348.94;;;19.49;61.97
41898;BME280;27576;53.366;-1.498;2023-06-26T09:11:23;100363.88;;;19.83;64.81
41898;BME280;27576;53.366;-1.498;2023-06-26T09:13:48;100343.69;;;19.85;61.25
41898;BME280;27576;53.366;-1.498;2023-06-26T09:16:14;100360.72;;;20.03;61.20
41898;BME280;27576;53.366;-1.498;2023-06-26T09:18:42;100362.81;;;19.90;61.01
41898;BME280;27576;53.366;-1.498;2023-06-26T09:21:11;100346.78;;;19.67;61.62
41898;BME280;27576;53.366;-1.498;2023-06-26T09:23:39;100353.44;;;19.80;59.66
41898;BME280;27576;53.366;-1.498;2023-06-26T09:26:05;100365.19;;;20.01;58.92
41898;BME280;27576;53.366;-1.498;2023-06-26T09:28:35;100360.78;;;20.01;57.64
41898;BME280;27576;53.366;-1.498;2023-06-26T09:31:02;100371.03;;;20.10;57.76
41898;BME280;27576;53.366;-1.498;2023-06-26T09:33:33;100377.66;;;20.25;57.91
41898;BME280;27576;53.366;-1.498;2023-06-26T09:35:59;100369.91;;;20.21;57.26
41898;BME280;27576;53.366;-1.498;2023-06-26T09:38:25;100367.06;;;20.27;57.12
41898;BME280;27576;53.366;-1.498;2023-06-26T09:40:50;100357.53;;;20.24;57.96
41898;BME280;27576;53.366;-1.498;2023-06-26T09:43:16;100376.13;;;20.49;57.33
41898;BME280;27576;53.366;-1.498;2023-06-26T09:45:44;100377.50;;;20.63;55.53
41898;BME280;27576;53.366;-1.498;2023-06-26T09:48:09;100350.00;;;20.73;56.13
41898;BME280;27576;53.366;-1.498;2023-06-26T09:50:36;100367.03;;;20.91;52.35
41898;BME280;27576;53.366;-1.498;2023-06-26T09:53:13;100365.09;;;20.68;52.94
41898;BME280;27576;53.366;-1.498;2023-06-26T09:55:40;100371.75;;;20.79;53.60
41898;BME280;27576;53.366;-1.498;2023-06-26T09:58:10;100374.97;;;20.89;51.92
41898;BME280;27576;53.366;-1.498;2023-06-26T10:00:40;100360.50;;;21.02;52.48
41898;BME280;27576;53.366;-1.498;2023-06-26T10:03:05;100377.28;;;21.28;53.89
41898;BME280;27576;53.366;-1.498;2023-06-26T10:05:30;100366.88;;;21.23;50.91
41898;BME280;27576;53.366;-1.498;2023-06-26T10:07:56;100356.97;;;20.74;52.58
41898;BME280;27576;53.366;-1.498;2023-06-26T10:10:23;100383.59;;;20.65;52.99
41898;BME280;27576;53.366;-1.498;2023-06-26T10:12:49;100408.59;;;20.50;54.55
41898;BME280;27576;53.366;-1.498;2023-06-26T10:15:17;100375.75;;;20.30;54.62
41898;BME280;27576;53.366;-1.498;2023-06-26T10:17:44;100396.34;;;20.49;54.73
41898;BME280;27576;53.366;-1.498;2023-06-26T10:20:13;100384.09;;;20.77;54.88
41898;BME280;27576;53.366;-1.498;2023-06-26T10:22:46;100388.13;;;21.19;55.46
41898;BME280;27576;53.366;-1.498;2023-06-26T10:25:18;100381.88;;;21.49;53.73
41898;BME280;27576;53.366;-1.498;2023-06-26T10:27:49;100390.66;;;21.76;50.73
41898;BME280;27576;53.366;-1.498;2023-06-26T10:30:20;100385.78;;;21.64;49.70
41898;BME280;27576;53.366;-1.498;2023-06-26T10:32:48;100389.19;;;21.68;49.53
41898;BME280;27576;53.366;-1.498;2023-06-26T10:35:14;100368.19;;;21.65;50.59
41898;BME280;27576;53.366;-1.498;2023-06-26T10:37:46;100400.94;;;21.84;48.55
41898;BME280;27576;53.366;-1.498;2023-06-26T10:40:13;100400.75;;;21.64;50.13
41898;BME280;27576;53.366;-1.498;2023-06-26T10:42:40;100381.19;;;21.71;49.51
41898;BME280;27576;53.366;-1.498;2023-06-26T10:45:28;100396.88;;;22.00;47.68
41898;BME280;27576;53.366;-1.498;2023-06-26T10:47:53;100387.34;;;21.96;48.63
41898;BME280;27576;53.366;-1.498;2023-06-26T10:50:29;100402.78;;;22.09;47.43
41898;BME280;27576;53.366;-1.498;2023-06-26T10:56:02;100387.53;;;22.42;49.61
41898;BME280;27576;53.366;-1.498;2023-06-26T11:01:21;100421.06;;;22.63;46.08
41898;BME280;27576;53.366;-1.498;2023-06-26T11:03:49;100427.34;;;22.61;47.97
41898;BME280;27576;53.366;-1.498;2023-06-26T11:06:19;100413.78;;;22.70;48.27
41898;BME280;27576;53.366;-1.498;2023-06-26T11:08:52;100410.22;;;22.71;47.31
41898;BME280;27576;53.366;-1.498;2023-06-26T11:11:21;100407.66;;;22.69;47.95
41898;BME280;27576;53.366;-1.498;2023-06-26T11:13:47;100420.19;;;22.64;48.76
41898;BME280;27576;53.366;-1.498;2023-06-26T11:16:14;100426.50;;;22.60;47.22
41898;BME280;27576;53.366;-1.498;2023-06-26T11:18:40;100390.56;;;22.54;47.02
41898;BME280;27576;53.366;-1.498;2023-06-26T11:21:09;100400.53;;;22.48;46.53
41898;BME280;27576;53.366;-1.498;2023-06-26T11:23:36;100406.91;;;22.66;46.63
41898;BME280;27576;53.366;-1.498;2023-06-26T11:28:49;100392.66;;;22.70;47.08
41898;BME280;27576;53.366;-1.498;2023-06-26T11:31:29;100410.13;;;22.97;45.68
41898;BME280;27576;53.366;-1.498;2023-06-26T11:34:01;100427.38;;;23.08;46.66
41898;BME280;27576;53.366;-1.498;2023-06-26T11:36:28;100419.91;;;23.19;46.28
41898;BME280;27576;53.366;-1.498;2023-06-26T11:38:59;100425.19;;;23.19;44.63
41898;BME280;27576;53.366;-1.498;2023-06-26T11:41:30;100427.56;;;23.25;46.00
41898;BME280;27576;53.366;-1.498;2023-06-26T11:44:00;100427.19;;;23.34;45.57
41898;BME280;27576;53.366;-1.498;2023-06-26T11:46:25;100425.19;;;23.19;45.08
41898;BME280;27576;53.366;-1.498;2023-06-26T11:48:50;100441.03;;;23.19;46.54
41898;BME280;27576;53.366;-1.498;2023-06-26T11:51:17;100446.53;;;22.89;45.69
41898;BME280;27576;53.366;-1.498;2023-06-26T11:53:44;100464.69;;;22.50;45.78
41898;BME280;27576;53.366;-1.498;2023-06-26T11:56:11;100459.59;;;21.92;46.67
41898;BME280;27576;53.366;-1.498;2023-06-26T11:59:01;100455.13;;;21.68;47.44
41898;BME280;27576;53.366;-1.498;2023-06-26T12:01:43;100454.13;;;21.44;48.17
41898;BME280;27576;53.366;-1.498;2023-06-26T12:04:13;100473.97;;;21.55;50.26
41898;BME280;27576;53.366;-1.498;2023-06-26T12:06:46;100463.25;;;21.32;49.91
41898;BME280;27576;53.366;-1.498;2023-06-26T12:09:13;100482.22;;;21.15;49.59
41898;BME280;27576;53.366;-1.498;2023-06-26T12:11:41;100473.91;;;20.98;50.64
41898;BME280;27576;53.366;-1.498;2023-06-26T12:14:07;100452.50;;;20.80;50.72
41898;BME280;27576;53.366;-1.498;2023-06-26T12:16:34;100466.50;;;20.81;50.39
41898;BME280;27576;53.366;-1.498;2023-06-26T12:19:02;100473.50;;;20.82;50.85
41898;BME280;27576;53.366;-1.498;2023-06-26T12:21:44;100484.16;;;20.79;50.59
41898;BME280;27576;53.366;-1.498;2023-06-26T12:24:16;100484.22;;;20.76;50.69
41898;BME280;27576;53.366;-1.498;2023-06-26T12:26:43;100477.47;;;20.97;51.64
41898;BME280;27576;53.366;-1.498;2023-06-26T12:29:11;100475.16;;;21.45;50.32
41898;BME280;27576;53.366;-1.498;2023-06-26T12:31:40;100480.25;;;21.51;48.31
41898;BME280;27576;53.366;-1.498;2023-06-26T12:34:10;100489.34;;;21.12;50.18
41898;BME280;27576;53.366;-1.498;2023-06-26T12:36:41;100461.53;;;20.70;48.74
41898;BME280;27576;53.366;-1.498;2023-06-26T12:39:09;100488.88;;;20.66;50.32
41898;BME280;27576;53.366;-1.498;2023-06-26T12:41:44;100466.66;;;20.44;52.18
41898;BME280;27576;53.366;-1.498;2023-06-26T12:44:25;100504.31;;;20.46;51.97
41898;BME280;27576;53.366;-1.498;2023-06-26T12:47:02;100505.41;;;20.37;53.14
41898;BME280;27576;53.366;-1.498;2023-06-26T12:49:34;100506.63;;;20.24;53.57
41898;BME280;27576;53.366;-1.498;2023-06-26T12:52:01;100502.50;;;20.14;53.67
41898;BME280;27576;53.366;-1.498;2023-06-26T12:54:27;100473.22;;;19.93;53.42